createdAt,value
2019-06-10T00:00:57.760Z,75.60
2019-06-10T00:03:22.842Z,75.50
2019-06-10T00:05:47.954Z,75.80
2019-06-10T00:08:13.070Z,76.10
2019-06-10T00:10:38.267Z,76.00
2019-06-10T00:13:05.017Z,76.70
2019-06-10T00:15:31.364Z,76.30
2019-06-10T00:18:18.697Z,76.00
2019-06-10T00:20:23.361Z,76.30
2019-06-10T00:22:48.742Z,76.10
2019-06-10T00:25:13.831Z,76.30
2019-06-10T00:27:38.941Z,76.80
2019-06-10T00:30:06.102Z,76.30
2019-06-10T00:32:32.034Z,76.00
2019-06-10T00:34:57.234Z,76.00
2019-06-10T00:37:22.381Z,77.90
2019-06-10T00:39:47.740Z,76.00
2019-06-10T00:42:15.227Z,77.70
2019-06-10T00:44:41.691Z,81.00
2019-06-10T00:47:08.287Z,84.00
2019-06-10T00:49:33.254Z,83.10
2019-06-10T00:51:58.590Z,86.20
2019-06-10T00:54:23.699Z,89.40
2019-06-10T00:56:48.777Z,90.70
2019-06-10T00:59:15.382Z,90.10
2019-06-10T01:01:41.863Z,90.30
2019-06-10T01:04:08.653Z,90.40
2019-06-10T01:06:33.722Z,92.10
2019-06-10T01:09:00.648Z,90.50
2019-06-10T01:11:27.382Z,91.40
2019-06-10T01:13:52.565Z,91.70
2019-06-10T01:16:17.661Z,92.20
2019-06-10T01:18:43.715Z,92.40
2019-06-10T01:21:11.103Z,92.50
2019-06-10T01:23:35.538Z,93.10
2019-06-10T01:26:01.546Z,94.00
2019-06-10T01:28:26.825Z,94.40
2019-06-10T01:30:51.946Z,93.50
2019-06-10T01:33:17.646Z,93.00
2019-06-10T01:35:42.771Z,93.80
2019-06-10T01:38:07.892Z,94.30
2019-06-10T01:40:32.986Z,94.10
2019-06-10T01:42:58.079Z,95.40
2019-06-10T01:45:23.193Z,94.80
2019-06-10T01:47:48.310Z,95.10
2019-06-10T01:50:15.918Z,94.80
2019-06-10T01:52:41.106Z,95.90
2019-06-10T01:55:07.543Z,95.10
2019-06-10T01:57:32.695Z,95.10
2019-06-10T01:59:57.778Z,95.40
2019-06-10T02:02:24.334Z,95.80
2019-06-10T02:04:51.723Z,97.00
2019-06-10T02:07:18.493Z,97.40
2019-06-10T02:09:43.655Z,96.40
2019-06-10T02:12:09.892Z,96.80
2019-06-10T02:14:35.474Z,97.00
2019-06-10T02:17:01.273Z,98.00
2019-06-10T02:19:26.506Z,98.20
2019-06-10T02:21:51.598Z,98.20
2019-06-10T02:24:17.645Z,98.80
2019-06-10T02:26:43.678Z,98.10
2019-06-10T02:29:11.189Z,98.40
2019-06-10T02:31:37.275Z,98.40
2019-06-10T02:34:02.746Z,99.50
2019-06-10T02:36:31.146Z,99.60
2019-06-10T02:38:54.654Z,99.20
2019-06-10T02:41:24.065Z,98.00
2019-06-10T02:43:46.631Z,98.40
2019-06-10T02:46:13.727Z,98.00
2019-06-10T02:48:38.447Z,98.40
2019-06-10T02:51:05.944Z,99.40
2019-06-10T02:53:35.319Z,99.80
2019-06-10T02:55:57.888Z,99.90
2019-06-10T02:58:30.445Z,99.90
2019-06-10T03:00:49.714Z,99.90
2019-06-10T03:03:19.837Z,99.90
2019-06-10T03:05:46.473Z,99.90
2019-06-10T03:08:08.267Z,99.90
2019-06-10T03:10:36.960Z,99.90
2019-06-10T03:13:02.412Z,99.90
2019-06-10T03:15:28.279Z,99.90
2019-06-10T03:17:53.406Z,99.90
2019-06-10T03:20:18.505Z,99.90
2019-06-10T03:22:43.622Z,99.90
2019-06-10T03:25:08.705Z,99.90
2019-06-10T03:27:33.809Z,99.90
2019-06-10T03:30:02.769Z,99.90
2019-06-10T03:32:33.343Z,99.90
2019-06-10T03:34:54.749Z,99.90
2019-06-10T03:37:22.874Z,99.90
2019-06-10T03:39:47.314Z,99.90
2019-06-10T03:42:12.680Z,99.90
2019-06-10T03:44:37.733Z,99.90
2019-06-10T03:47:02.958Z,99.90
2019-06-10T03:49:28.829Z,99.90
2019-06-10T03:51:54.604Z,99.90
2019-06-10T03:54:22.751Z,99.90
2019-06-10T03:56:46.413Z,99.90
2019-06-10T03:59:12.259Z,99.90
2019-06-10T04:01:37.576Z,99.90
2019-06-10T04:04:02.615Z,99.90
2019-06-10T04:06:29.550Z,99.90
2019-06-10T04:08:55.746Z,99.90
2019-06-10T04:11:23.977Z,99.90
2019-06-10T04:13:47.938Z,99.90
2019-06-10T04:16:13.273Z,99.90
2019-06-10T04:18:38.438Z,99.90
2019-06-10T04:21:03.774Z,99.90
2019-06-10T04:23:28.817Z,99.90
2019-06-10T04:25:53.911Z,99.90
2019-06-10T04:28:19.790Z,99.90
2019-06-10T04:30:46.134Z,99.90
2019-06-10T04:33:12.754Z,99.90
2019-06-10T04:35:37.897Z,99.90
2019-06-10T04:38:03.101Z,99.90
2019-06-10T04:40:29.295Z,99.90
2019-06-10T04:42:54.538Z,99.90
2019-06-10T04:45:21.176Z,99.90
2019-06-10T04:47:46.375Z,99.90
2019-06-10T04:50:24.036Z,99.90
2019-06-10T04:52:38.797Z,99.90
2019-06-10T04:55:04.296Z,99.90
2019-06-10T04:57:29.730Z,99.90
2019-06-10T04:59:54.851Z,99.90
2019-06-10T05:02:23.792Z,99.90
2019-06-10T05:04:47.222Z,99.90
2019-06-10T05:07:12.669Z,99.90
2019-06-10T05:09:37.997Z,99.90
2019-06-10T05:12:03.131Z,99.90
2019-06-10T05:14:29.117Z,99.90
2019-06-10T05:16:54.960Z,99.90
2019-06-10T05:19:20.046Z,99.90
2019-06-10T05:21:45.137Z,99.90
2019-06-10T05:24:12.484Z,99.90
2019-06-10T05:26:37.230Z,99.90
2019-06-10T05:29:03.107Z,99.90
2019-06-10T05:31:29.875Z,99.90
2019-06-10T05:33:55.082Z,99.90
2019-06-10T05:36:20.646Z,99.90
2019-06-10T05:38:45.838Z,99.90
2019-06-10T05:41:13.095Z,99.90
2019-06-10T05:43:37.705Z,99.90
2019-06-10T05:46:03.286Z,99.90
2019-06-10T05:48:28.416Z,99.90
2019-06-10T05:51:02.646Z,99.90
2019-06-10T05:53:23.104Z,99.90
2019-06-10T05:55:48.245Z,99.90
2019-06-10T05:58:13.599Z,99.90
2019-06-10T06:00:38.707Z,99.90
2019-06-10T06:03:03.802Z,99.90
2019-06-10T06:05:29.983Z,99.90
2019-06-10T06:08:04.395Z,99.90
2019-06-10T06:10:22.297Z,99.90
2019-06-10T06:12:47.463Z,99.90
2019-06-10T06:15:13.780Z,99.90
2019-06-10T06:17:39.113Z,99.90
2019-06-10T06:20:04.842Z,99.90
2019-06-10T06:22:29.938Z,99.90
2019-06-10T06:24:55.066Z,99.90
2019-06-10T06:27:22.356Z,99.90
2019-06-10T06:29:46.972Z,99.90
2019-06-10T06:32:13.211Z,99.90
2019-06-10T06:34:39.326Z,99.90
2019-06-10T06:37:04.447Z,99.90
2019-06-10T06:39:32.257Z,99.90
2019-06-10T06:41:56.267Z,99.90
2019-06-10T06:44:23.338Z,99.90
2019-06-10T06:46:48.619Z,99.90
2019-06-10T06:49:13.730Z,99.90
2019-06-10T06:51:51.921Z,99.90
2019-06-10T06:54:05.550Z,99.90
2019-06-10T06:56:35.445Z,99.90
2019-06-10T06:58:57.438Z,99.90
2019-06-10T07:01:25.793Z,99.90
2019-06-10T07:03:49.349Z,99.90
2019-06-10T07:06:15.642Z,99.90
2019-06-10T07:08:51.780Z,99.90
2019-06-10T07:11:10.147Z,99.90
2019-06-10T07:13:37.425Z,99.90
2019-06-10T07:16:03.046Z,99.90
2019-06-10T07:18:28.275Z,99.90
2019-06-10T07:20:54.070Z,99.90
2019-06-10T07:23:19.253Z,99.90
2019-06-10T07:25:47.086Z,99.90
2019-06-10T07:28:12.536Z,99.90
2019-06-10T07:30:42.350Z,99.90
2019-06-10T07:33:04.577Z,99.90
2019-06-10T07:35:32.598Z,99.90
2019-06-10T07:37:57.002Z,99.90
2019-06-10T07:40:22.305Z,99.90
2019-06-10T07:42:47.390Z,99.90
2019-06-10T07:45:13.139Z,99.90
2019-06-10T07:47:39.011Z,99.90
2019-06-10T07:50:04.325Z,99.90
2019-06-10T07:52:29.434Z,99.90
2019-06-10T07:54:54.523Z,99.90
2019-06-10T07:57:19.652Z,99.90
2019-06-10T07:59:45.975Z,99.90
2019-06-10T08:02:12.389Z,99.90
2019-06-10T08:04:38.137Z,99.90
2019-06-10T08:07:03.512Z,99.90
2019-06-10T08:09:28.603Z,99.90
2019-06-10T08:11:53.826Z,99.90
2019-06-10T08:14:18.911Z,99.90
2019-06-10T08:16:46.516Z,99.90
2019-06-10T08:19:25.980Z,99.90
2019-06-10T08:21:38.869Z,99.90
2019-06-10T08:24:04.204Z,99.90
2019-06-10T08:26:29.559Z,99.90
2019-06-10T08:28:54.682Z,99.90
2019-06-10T08:31:22.380Z,99.90
2019-06-10T08:33:48.790Z,99.90
2019-06-10T08:36:13.726Z,99.90
2019-06-10T08:38:40.330Z,99.90
2019-06-10T08:41:06.455Z,99.90
2019-06-10T08:43:33.186Z,99.90
2019-06-10T08:45:58.625Z,99.90
2019-06-10T08:48:24.022Z,99.90
2019-06-10T08:50:50.216Z,99.90
2019-06-10T08:53:18.252Z,99.90
2019-06-10T08:55:44.909Z,99.90
2019-06-10T08:58:10.152Z,99.90
2019-06-10T09:00:35.358Z,99.90
2019-06-10T09:03:00.466Z,99.90
2019-06-10T09:05:25.817Z,99.90
2019-06-10T09:07:54.221Z,99.90
2019-06-10T09:10:18.099Z,99.90
2019-06-10T09:12:46.026Z,99.90
2019-06-10T09:15:12.913Z,99.90
2019-06-10T09:17:39.698Z,99.90
2019-06-10T09:20:05.267Z,99.70
2019-06-10T09:22:32.730Z,99.90
2019-06-10T09:24:57.379Z,99.40
2019-06-10T09:27:26.750Z,99.20
2019-06-10T09:29:53.136Z,99.40
2019-06-10T09:32:16.341Z,99.30
2019-06-10T09:34:43.058Z,98.70
2019-06-10T09:37:08.166Z,98.40
2019-06-10T09:39:33.262Z,98.90
2019-06-10T09:42:02.670Z,97.80
2019-06-10T09:44:25.549Z,98.50
2019-06-10T09:46:55.983Z,98.30
2019-06-10T09:49:22.933Z,97.50
2019-06-10T09:51:50.605Z,97.80
2019-06-10T09:54:14.762Z,98.10
2019-06-10T09:56:41.112Z,97.90
2019-06-10T09:59:08.178Z,99.30
2019-06-10T10:01:33.281Z,97.70
2019-06-10T10:04:00.405Z,98.40
2019-06-10T10:06:25.396Z,97.20
2019-06-10T10:08:57.551Z,95.20
2019-06-10T10:11:17.494Z,95.40
2019-06-10T10:13:45.486Z,96.90
2019-06-10T10:16:09.343Z,95.40
2019-06-10T10:18:34.425Z,95.50
2019-06-10T10:21:03.055Z,94.10
2019-06-10T10:23:27.699Z,95.40
2019-06-10T10:25:56.997Z,93.30
2019-06-10T10:28:22.938Z,95.30
2019-06-10T10:30:49.179Z,94.50
2019-06-10T10:33:13.420Z,93.10
2019-06-10T10:35:38.914Z,93.50
2019-06-10T10:38:04.034Z,93.30
2019-06-10T10:40:29.117Z,92.50
2019-06-10T10:43:10.204Z,95.80
2019-06-10T10:45:23.035Z,92.00
2019-06-10T10:47:49.002Z,92.00
2019-06-10T10:50:14.665Z,91.30
2019-06-10T10:52:42.868Z,90.10
2019-06-10T10:55:07.273Z,89.20
2019-06-10T10:57:33.069Z,89.20
2019-06-10T11:00:03.219Z,91.80
2019-06-10T11:02:32.210Z,87.30
2019-06-10T11:04:57.242Z,86.70
2019-06-10T11:07:22.425Z,90.20
2019-06-10T11:09:48.578Z,90.60
2019-06-10T11:12:16.003Z,89.00
2019-06-10T11:14:42.453Z,87.80
2019-06-10T11:17:08.083Z,87.90
2019-06-10T11:19:34.203Z,90.10
2019-06-10T11:22:02.154Z,85.60
2019-06-10T11:24:36.648Z,85.80
2019-06-10T11:26:56.478Z,89.90
2019-06-10T11:29:20.422Z,90.00
2019-06-10T11:31:46.291Z,85.60
2019-06-10T11:34:11.630Z,85.90
2019-06-10T11:36:36.790Z,86.00
2019-06-10T11:39:02.791Z,87.60
2019-06-10T11:41:29.247Z,86.00
2019-06-10T11:43:57.771Z,84.50
2019-06-10T11:46:21.091Z,83.80
2019-06-10T11:48:47.021Z,86.50
2019-06-10T11:51:13.095Z,87.40
2019-06-10T11:53:39.046Z,85.40
2019-06-10T11:56:04.516Z,85.70
2019-06-10T11:58:29.650Z,83.30
2019-06-10T12:00:58.493Z,83.40
2019-06-10T12:03:23.132Z,83.20
2019-06-10T12:05:49.041Z,82.10
2019-06-10T12:08:14.442Z,78.40
2019-06-10T12:10:43.435Z,80.00
2019-06-10T12:13:09.000Z,84.40
2019-06-10T12:16:09.667Z,78.30
2019-06-10T12:18:07.898Z,79.10
2019-06-10T12:20:28.543Z,80.50
2019-06-10T12:22:57.105Z,79.60
2019-06-10T12:25:32.474Z,77.60
2019-06-10T12:27:47.842Z,82.20
2019-06-10T12:30:14.367Z,79.00
2019-06-10T12:32:42.556Z,78.50
2019-06-10T12:35:07.429Z,79.10
2019-06-10T12:37:33.828Z,80.80
2019-06-10T12:40:02.161Z,76.40
2019-06-10T12:42:27.251Z,77.60
2019-06-10T12:44:54.493Z,78.70
2019-06-10T12:47:22.668Z,76.80
2019-06-10T12:49:45.865Z,74.80
2019-06-10T12:52:12.599Z,74.30
2019-06-10T12:54:38.282Z,77.40
2019-06-10T12:57:06.348Z,76.60
2019-06-10T12:59:32.269Z,76.20
2019-06-10T13:01:58.059Z,77.30
2019-06-10T13:04:23.706Z,76.60
2019-06-10T13:06:49.308Z,78.60
2019-06-10T13:09:14.450Z,76.90
2019-06-10T13:11:39.534Z,76.10
2019-06-10T13:14:06.583Z,80.40
2019-06-10T13:16:32.009Z,75.80
2019-06-10T13:18:57.908Z,76.20
2019-06-10T13:21:23.016Z,77.60
2019-06-10T13:23:48.138Z,76.60
2019-06-10T13:26:16.775Z,77.10
2019-06-10T13:28:43.098Z,75.50
2019-06-10T13:31:09.874Z,73.70
2019-06-10T13:33:33.734Z,74.90
2019-06-10T13:35:59.584Z,72.80
2019-06-10T13:38:25.966Z,76.20
2019-06-10T13:40:53.313Z,75.60
2019-06-10T13:43:18.473Z,73.80
2019-06-10T13:45:43.607Z,77.00
2019-06-10T13:48:11.530Z,71.30
2019-06-10T13:50:35.491Z,72.60
2019-06-10T13:53:02.859Z,74.90
2019-06-10T13:55:27.298Z,75.10
2019-06-10T13:57:53.226Z,72.90
2019-06-10T14:00:22.852Z,73.20
2019-06-10T14:02:47.894Z,72.30
2019-06-10T14:05:18.060Z,73.30
2019-06-10T14:07:43.334Z,72.90
2019-06-10T14:10:17.693Z,72.30
2019-06-10T14:12:36.463Z,75.80
2019-06-10T14:15:04.123Z,72.50
2019-06-10T14:17:28.298Z,73.80
2019-06-10T14:19:53.441Z,72.40
2019-06-10T14:22:18.537Z,71.30
2019-06-10T14:24:44.012Z,73.30
2019-06-10T14:27:12.301Z,72.10
2019-06-10T14:29:36.507Z,71.10
2019-06-10T14:32:03.527Z,71.90
2019-06-10T14:34:28.330Z,70.10
2019-06-10T14:36:53.461Z,69.80
2019-06-10T14:39:18.942Z,73.30
2019-06-10T14:41:44.425Z,71.20
2019-06-10T14:47:25.443Z,72.20
2019-06-10T14:49:52.888Z,73.00
2019-06-10T14:52:17.801Z,71.50
2019-06-10T14:54:42.936Z,71.60
2019-06-10T14:57:09.233Z,71.80
2019-06-10T14:59:34.396Z,75.30
2019-06-10T15:01:59.499Z,76.20
2019-06-10T15:04:24.622Z,75.30
2019-06-10T15:06:49.714Z,75.30
2019-06-10T15:09:15.743Z,73.50
2019-06-10T15:11:42.803Z,74.70
2019-06-10T15:14:07.813Z,74.50
2019-06-10T15:16:33.626Z,75.40
2019-06-10T15:19:11.927Z,74.70
2019-06-10T15:21:25.505Z,74.50
2019-06-10T15:23:52.312Z,75.50
2019-06-10T15:26:17.743Z,76.10
2019-06-10T15:28:42.863Z,76.70
2019-06-10T15:31:10.237Z,75.80
2019-06-10T15:33:35.639Z,75.50
2019-06-10T15:36:02.322Z,75.80
2019-06-10T15:38:27.673Z,74.90
2019-06-10T15:40:54.030Z,75.80
2019-06-10T15:43:20.783Z,75.70
2019-06-10T15:45:46.862Z,75.30
2019-06-10T15:48:15.569Z,75.90
2019-06-10T15:50:38.718Z,75.80
2019-06-10T15:53:03.806Z,76.70
2019-06-10T15:55:55.492Z,76.30
2019-06-10T15:57:55.905Z,75.80
2019-06-10T16:00:28.094Z,76.90
2019-06-10T16:02:49.761Z,78.00
2019-06-10T16:05:16.151Z,78.10
2019-06-10T16:07:42.342Z,79.40
2019-06-10T16:10:07.695Z,77.40
2019-06-10T16:12:33.053Z,78.10
2019-06-10T16:14:58.206Z,77.20
2019-06-10T16:17:25.072Z,77.50
2019-06-10T16:19:53.003Z,78.30
2019-06-10T16:22:19.537Z,78.90
2019-06-10T16:24:44.901Z,78.60
2019-06-10T16:27:12.497Z,79.90
2019-06-10T16:29:36.729Z,78.90
2019-06-10T16:32:02.540Z,80.30
2019-06-10T16:34:29.169Z,81.20
2019-06-10T16:36:54.585Z,81.80
2019-06-10T16:39:21.101Z,82.30
2019-06-10T16:41:47.345Z,83.70
2019-06-10T16:44:13.545Z,85.30
2019-06-10T16:46:39.109Z,84.40
2019-06-10T16:49:04.277Z,85.50
2019-06-10T16:51:29.884Z,85.60
2019-06-10T16:53:55.344Z,84.90
2019-06-10T16:56:22.310Z,85.70
2019-06-10T16:58:47.450Z,84.80
2019-06-10T17:01:12.826Z,85.60
2019-06-10T17:03:37.915Z,85.00
2019-06-10T17:06:03.054Z,84.50
2019-06-10T17:08:28.587Z,85.20
2019-06-10T17:10:53.811Z,84.90
2019-06-10T17:13:21.515Z,84.80
2019-06-10T17:15:47.283Z,85.00
2019-06-10T17:18:13.124Z,85.20
2019-06-10T17:20:38.304Z,86.00
2019-06-10T17:23:26.460Z,87.40
2019-06-10T17:25:49.796Z,87.80
2019-06-10T17:28:18.047Z,87.60
2019-06-10T17:30:42.556Z,88.00
2019-06-10T17:33:07.752Z,88.60
2019-06-10T17:35:36.828Z,89.40
2019-06-10T17:37:59.794Z,88.50
2019-06-10T17:40:26.154Z,89.10
2019-06-10T17:42:53.256Z,89.60
2019-06-10T17:45:18.692Z,87.40
2019-06-10T17:47:44.496Z,87.80
2019-06-10T17:50:12.504Z,89.40
2019-06-10T17:52:38.898Z,89.80
2019-06-10T17:55:03.632Z,90.10
2019-06-10T17:57:29.966Z,89.90
2019-06-10T17:59:55.922Z,90.10
2019-06-10T18:02:23.052Z,90.20
2019-06-10T18:04:47.749Z,90.20
2019-06-10T18:07:13.129Z,90.70
2019-06-10T18:09:38.355Z,90.30
2019-06-10T18:12:03.626Z,90.40
2019-06-10T18:14:30.116Z,90.40
2019-06-10T18:16:55.242Z,90.80
2019-06-10T18:19:22.212Z,90.70
2019-06-10T18:21:48.305Z,90.70
2019-06-10T18:24:13.409Z,91.00
2019-06-10T18:26:38.527Z,91.20
2019-06-10T18:29:08.553Z,91.70
2019-06-10T18:31:33.358Z,91.10
2019-06-10T18:33:57.712Z,92.00
2019-06-10T18:36:24.373Z,91.50
2019-06-10T18:38:49.710Z,91.60
2019-06-10T18:41:14.945Z,91.90
2019-06-10T18:43:40.302Z,92.10
2019-06-10T18:46:07.541Z,92.30
2019-06-10T18:48:36.111Z,92.20
2019-06-10T18:50:59.369Z,92.30
2019-06-10T18:53:24.634Z,92.30
2019-06-10T18:55:52.258Z,93.20
2019-06-10T18:58:16.470Z,92.80
2019-06-10T19:00:56.900Z,93.00
2019-06-10T19:03:15.757Z,93.40
2019-06-10T19:05:37.849Z,93.70
2019-06-10T19:08:03.338Z,94.00
2019-06-10T19:10:29.080Z,94.10
2019-06-10T19:12:54.370Z,93.60
2019-06-10T19:15:20.917Z,93.90
2019-06-10T19:17:46.010Z,94.00
2019-06-10T19:20:12.939Z,94.30
2019-06-10T19:22:39.108Z,94.00
2019-06-10T19:25:05.236Z,93.90
2019-06-10T19:27:31.291Z,94.60
2019-06-10T19:29:57.071Z,94.60
2019-06-10T19:32:22.185Z,94.30
2019-06-10T19:34:48.526Z,94.50
2019-06-10T19:37:14.104Z,94.90
2019-06-10T19:39:46.138Z,94.80
2019-06-10T19:42:09.229Z,94.90
2019-06-10T19:44:35.180Z,94.80
2019-06-10T19:47:02.357Z,96.00
2019-06-10T19:49:26.894Z,96.40
2019-06-10T19:51:52.666Z,96.40
2019-06-10T19:54:17.974Z,95.80
2019-06-10T19:56:43.786Z,95.80
2019-06-10T19:59:08.889Z,96.90
2019-06-10T20:01:35.981Z,96.30
2019-06-10T20:04:02.672Z,96.00
2019-06-10T20:06:27.464Z,96.20
2019-06-10T20:08:52.718Z,96.70
2019-06-10T20:11:17.810Z,96.50
2019-06-10T20:13:43.709Z,97.10
2019-06-10T20:16:11.982Z,97.10
2019-06-10T20:18:38.041Z,97.00
2019-06-10T20:21:04.175Z,97.10
2019-06-10T20:23:29.341Z,97.30
2019-06-10T20:25:54.421Z,97.80
2019-06-10T20:28:19.515Z,97.80
2019-06-10T20:30:47.765Z,98.20
2019-06-10T20:33:13.758Z,98.30
2019-06-10T20:35:40.395Z,98.20
2019-06-10T20:38:05.646Z,98.20
2019-06-10T20:40:32.146Z,99.00
2019-06-10T20:43:00.109Z,98.60
2019-06-10T20:45:24.221Z,99.00
2019-06-10T20:47:50.150Z,99.60
2019-06-10T20:50:16.518Z,99.80
2019-06-10T20:52:44.244Z,99.90
2019-06-10T20:55:09.445Z,99.90
2019-06-10T20:57:47.198Z,99.90
2019-06-10T21:00:01.249Z,99.90
2019-06-10T21:02:26.858Z,99.90
2019-06-10T21:04:53.206Z,99.90
2019-06-10T21:07:20.434Z,99.90
2019-06-10T21:09:48.924Z,99.90
2019-06-10T21:12:15.230Z,99.90
2019-06-10T21:14:42.390Z,99.90
2019-06-10T21:17:07.187Z,99.90
2019-06-10T21:19:33.095Z,99.90
2019-06-10T21:21:58.285Z,99.90
2019-06-10T21:24:23.431Z,99.90
2019-06-10T21:26:49.704Z,99.90
2019-06-10T21:29:15.273Z,99.90
2019-06-10T21:31:41.752Z,99.90
2019-06-10T21:34:07.118Z,99.90
2019-06-10T21:36:32.355Z,99.90
2019-06-10T21:38:57.462Z,99.90
2019-06-10T21:41:22.837Z,99.90
2019-06-10T21:43:51.717Z,99.90
2019-06-10T21:46:14.697Z,99.90
2019-06-10T21:48:39.793Z,99.90
2019-06-10T21:51:04.906Z,99.90
2019-06-10T21:53:30.009Z,99.90
2019-06-10T21:55:55.786Z,99.90
2019-06-10T21:58:22.527Z,99.90
2019-06-10T22:01:01.175Z,99.90
2019-06-10T22:03:16.914Z,99.90
2019-06-10T22:05:42.853Z,99.90
2019-06-10T22:08:08.766Z,99.90
2019-06-10T22:10:33.862Z,99.90
2019-06-10T22:12:59.019Z,99.90
2019-06-10T22:15:24.099Z,99.90
2019-06-10T22:17:50.399Z,99.90
2019-06-10T22:20:16.267Z,99.90
2019-06-10T22:22:42.839Z,99.90
2019-06-10T22:25:08.090Z,99.90
2019-06-10T22:27:33.473Z,99.90
2019-06-10T22:29:58.575Z,99.90
2019-06-10T22:32:23.833Z,99.90
2019-06-10T22:34:49.650Z,99.90
2019-06-10T22:37:14.753Z,99.90
2019-06-10T22:39:41.986Z,99.90
2019-06-10T22:42:06.593Z,99.90
2019-06-10T22:44:33.107Z,99.90
2019-06-10T22:46:58.309Z,99.90
2019-06-10T22:49:23.745Z,99.90
2019-06-10T22:51:50.173Z,99.90
2019-06-10T22:54:15.349Z,99.90
2019-06-10T22:56:42.385Z,99.90
2019-06-10T22:59:07.238Z,99.90
2019-06-10T23:01:37.873Z,99.90
2019-06-10T23:04:00.394Z,99.90
2019-06-10T23:06:26.915Z,99.90
2019-06-10T23:08:54.661Z,99.90
2019-06-10T23:11:19.802Z,99.90
2019-06-10T23:13:44.916Z,99.90
2019-06-10T23:16:13.040Z,99.90
2019-06-10T23:18:38.162Z,99.90
2019-06-10T23:21:04.349Z,99.90
2019-06-10T23:23:29.810Z,99.90
2019-06-10T23:25:55.965Z,99.90
2019-06-10T23:28:22.226Z,99.90
2019-06-10T23:30:47.398Z,99.90
2019-06-10T23:33:12.745Z,99.90
2019-06-10T23:35:37.859Z,99.90
2019-06-10T23:38:05.084Z,99.90
2019-06-10T23:40:29.722Z,99.90
2019-06-10T23:42:54.892Z,99.90
2019-06-10T23:45:22.267Z,99.90
2019-06-10T23:47:46.869Z,99.90
2019-06-10T23:50:12.888Z,99.90
2019-06-10T23:52:38.135Z,99.90
2019-06-10T23:55:04.582Z,99.90
2019-06-10T23:57:32.928Z,99.90
2019-06-10T23:59:58.535Z,99.90
